Time;durP1;ratioP1;P1;durP2;ratioP2;P2;SDS_P1;SDS_P2;PMS_P1;PMS_P2;Temp;Humidity;BMP_temperature;BMP_pressure;BME280_temperature;BME280_humidity;BME280_pressure;Samples;Min_cycle;Max_cycle;Signal;HPM_P1;HPM_P2
2022/07/11 00:02:11;;;;;;;10.68;7.40;;;18.10;73.10;;;;;;5069222;28;20056;-72
2022/07/11 00:04:37;;;;;;;10.88;8.20;;;18.10;73.20;;;;;;5077996;28;20553;-72
2022/07/11 00:07:03;;;;;;;11.25;8.25;;;18.10;72.90;;;;;;5079696;28;20043;-72
2022/07/11 00:09:29;;;;;;;11.38;8.80;;;18.00;73.00;;;;;;5066375;28;20063;-73
2022/07/11 00:11:55;;;;;;;11.32;8.88;;;18.00;73.10;;;;;;5089329;28;20044;-72
2022/07/11 00:14:21;;;;;;;10.68;8.10;;;18.00;73.20;;;;;;5071155;28;20119;-72
2022/07/11 00:16:48;;;;;;;12.07;8.15;;;17.90;73.30;;;;;;5072152;28;20028;-72
2022/07/11 00:19:14;;;;;;;16.67;9.90;;;17.80;73.50;;;;;;5070473;28;20048;-72
2022/07/11 00:21:39;;;;;;;10.77;9.45;;;17.70;74.00;;;;;;5067952;28;20051;-72
2022/07/11 00:24:07;;;;;;;11.07;9.00;;;17.60;74.60;;;;;;5068069;28;20049;-72
2022/07/11 00:26:36;;;;;;;12.52;10.20;;;17.60;74.50;;;;;;5088168;28;20058;-72
2022/07/11 00:29:02;;;;;;;10.63;9.40;;;17.70;74.50;;;;;;5074203;28;20033;-73
2022/07/11 00:31:28;;;;;;;11.68;8.40;;;17.70;74.20;;;;;;5067435;28;20477;-72
2022/07/11 00:33:54;;;;;;;11.30;8.75;;;17.70;74.20;;;;;;5076689;28;20133;-72
2022/07/11 00:36:20;;;;;;;10.00;8.55;;;17.70;74.40;;;;;;5085236;28;20074;-71
2022/07/11 00:38:46;;;;;;;11.50;9.70;;;17.80;74.30;;;;;;5072097;28;20488;-71
2022/07/11 00:41:11;;;;;;;11.82;9.38;;;17.80;74.10;;;;;;5086242;28;20544;-71
2022/07/11 00:43:39;;;;;;;13.02;9.88;;;17.80;74.10;;;;;;5086943;28;20032;-71
2022/07/11 00:46:06;;;;;;;12.18;8.70;;;17.80;74.20;;;;;;5079952;28;20128;-71
2022/07/11 00:48:32;;;;;;;10.98;8.98;;;17.60;74.50;;;;;;5069013;28;20545;-71
2022/07/11 00:51:00;;;;;;;12.50;9.95;;;17.60;74.80;;;;;;5084779;28;20032;-71
2022/07/11 00:53:26;;;;;;;11.50;9.23;;;17.50;75.00;;;;;;5080520;28;20036;-71
2022/07/11 00:55:53;;;;;;;11.85;9.50;;;17.50;75.20;;;;;;5079641;28;20044;-71
2022/07/11 00:58:19;;;;;;;11.60;8.60;;;17.50;75.20;;;;;;5088978;28;20032;-71
2022/07/11 01:00:44;;;;;;;11.45;8.18;;;17.50;75.10;;;;;;5079667;28;20024;-71
2022/07/11 01:03:11;;;;;;;11.20;8.15;;;17.40;75.00;;;;;;5076415;28;20029;-73
2022/07/11 01:05:37;;;;;;;10.25;8.57;;;17.30;75.00;;;;;;5081007;28;20040;-73
2022/07/11 01:08:03;;;;;;;9.32;7.78;;;17.30;75.20;;;;;;5072295;28;20502;-73
2022/07/11 01:10:29;;;;;;;10.90;8.40;;;17.20;75.40;;;;;;5087108;28;20481;-72
2022/07/11 01:12:54;;;;;;;10.18;8.70;;;17.20;75.50;;;;;;5090368;28;20562;-72
2022/07/11 01:15:20;;;;;;;10.65;9.02;;;17.10;75.70;;;;;;5082852;28;20035;-71
2022/07/11 01:17:46;;;;;;;13.88;10.35;;;17.10;75.80;;;;;;5080216;28;20115;-72
2022/07/11 01:20:11;;;;;;;13.00;10.70;;;17.20;76.00;;;;;;5080788;28;20040;-74
2022/07/11 01:22:43;;;;;;;13.20;11.23;;;17.10;76.10;;;;;;5073875;28;20082;-71
2022/07/11 01:25:09;;;;;;;11.27;9.95;;;17.10;76.20;;;;;;5074356;28;20036;-74
2022/07/11 01:27:35;;;;;;;14.63;11.07;;;17.00;76.50;;;;;;5083975;28;20040;-72
2022/07/11 01:30:02;;;;;;;12.18;9.50;;;16.90;76.70;;;;;;5080506;28;20123;-72
2022/07/11 01:32:27;;;;;;;13.13;10.30;;;16.90;76.90;;;;;;5084598;28;20024;-72
2022/07/11 01:34:53;;;;;;;11.48;9.30;;;16.90;77.10;;;;;;5085094;28;20036;-72
2022/07/11 01:37:19;;;;;;;10.73;9.00;;;16.80;77.20;;;;;;5084095;28;20115;-72
2022/07/11 01:39:45;;;;;;;13.95;9.70;;;16.80;77.10;;;;;;5076466;28;20036;-72
2022/07/11 01:42:10;;;;;;;11.60;9.25;;;16.80;77.00;;;;;;5073860;28;20028;-72
2022/07/11 01:44:36;;;;;;;11.98;9.18;;;16.80;77.10;;;;;;5090267;28;20036;-71
2022/07/11 01:47:02;;;;;;;11.25;9.07;;;16.70;77.00;;;;;;5083832;28;20432;-72
2022/07/11 01:49:29;;;;;;;11.35;9.40;;;16.70;77.10;;;;;;5076391;28;20403;-72
2022/07/11 01:51:56;;;;;;;12.60;9.80;;;16.70;77.20;;;;;;5075954;28;20033;-72
2022/07/11 01:54:21;;;;;;;10.43;8.75;;;16.60;77.30;;;;;;5082444;28;20456;-72
2022/07/11 01:56:47;;;;;;;11.63;9.48;;;16.60;77.50;;;;;;5083048;28;20055;-72
2022/07/11 01:59:13;;;;;;;10.65;9.52;;;16.60;77.50;;;;;;5075574;28;20036;-72
2022/07/11 02:01:39;;;;;;;11.55;9.30;;;16.60;77.30;;;;;;5081861;28;20028;-72
2022/07/11 02:04:05;;;;;;;11.25;9.70;;;16.50;77.60;;;;;;5083199;28;20047;-71
2022/07/11 02:06:31;;;;;;;13.05;9.77;;;16.40;77.90;;;;;;5081713;28;20032;-71
2022/07/11 02:08:57;;;;;;;13.25;9.75;;;16.40;78.30;;;;;;5078741;28;20044;-72
2022/07/11 02:11:23;;;;;;;11.38;9.88;;;16.40;78.50;;;;;;5079698;28;20506;-72
2022/07/11 02:13:49;;;;;;;11.48;9.68;;;16.40;78.80;;;;;;5070679;28;20195;-72
2022/07/11 02:16:16;;;;;;;11.70;9.27;;;16.30;78.90;;;;;;5086681;28;20032;-72
2022/07/11 02:18:41;;;;;;;11.38;9.65;;;16.30;79.10;;;;;;5072196;28;20102;-72
2022/07/11 02:21:08;;;;;;;11.95;9.45;;;16.30;79.00;;;;;;5077830;28;20036;-72
2022/07/11 02:23:33;;;;;;;12.38;10.43;;;16.20;79.00;;;;;;5082825;28;20036;-72
2022/07/11 02:25:59;;;;;;;12.30;10.48;;;16.20;79.20;;;;;;5090513;28;20445;-72
2022/07/11 02:28:25;;;;;;;12.43;10.65;;;16.20;79.30;;;;;;5080385;28;20036;-72
2022/07/11 02:30:51;;;;;;;12.15;10.43;;;16.10;79.20;;;;;;5076524;28;20028;-72
2022/07/11 02:33:16;;;;;;;14.02;11.18;;;16.10;79.30;;;;;;5080042;28;20032;-72
2022/07/11 02:35:43;;;;;;;14.50;12.00;;;16.10;79.30;;;;;;5079361;28;20036;-72
2022/07/11 02:38:08;;;;;;;14.18;12.23;;;16.10;79.30;;;;;;5070646;28;20056;-72
2022/07/11 02:40:34;;;;;;;13.23;11.63;;;16.10;79.30;;;;;;5070620;28;20067;-72
2022/07/11 02:43:00;;;;;;;14.77;12.23;;;16.10;79.30;;;;;;5080995;28;20047;-72
2022/07/11 02:45:25;;;;;;;14.48;12.75;;;16.10;79.20;;;;;;5087404;28;20043;-72
2022/07/11 02:47:51;;;;;;;14.48;12.02;;;16.10;79.30;;;;;;5074005;28;20036;-72
2022/07/11 02:50:17;;;;;;;14.10;11.63;;;16.00;79.40;;;;;;5083217;28;20043;-71
2022/07/11 02:52:42;;;;;;;14.48;12.02;;;16.00;79.60;;;;;;5078567;28;20090;-72
2022/07/11 02:55:10;;;;;;;14.30;12.27;;;16.00;79.70;;;;;;5067924;28;20415;-72
2022/07/11 02:57:38;;;;;;;16.55;12.90;;;16.00;79.80;;;;;;5077533;28;20036;-72
2022/07/11 03:00:05;;;;;;;14.65;11.88;;;16.00;79.90;;;;;;5076531;28;20039;-72
2022/07/11 03:02:31;;;;;;;13.80;12.38;;;15.90;80.00;;;;;;5067391;28;20028;-72
2022/07/11 03:04:57;;;;;;;16.27;13.10;;;15.90;80.10;;;;;;5073325;28;20735;-71
2022/07/11 03:07:25;;;;;;;15.27;13.63;;;15.80;80.30;;;;;;5076786;28;20038;-72
2022/07/11 03:09:51;;;;;;;15.32;13.73;;;15.80;80.50;;;;;;5084390;28;20036;-72
2022/07/11 03:12:17;;;;;;;14.63;12.25;;;15.70;80.60;;;;;;5081986;28;20509;-72
2022/07/11 03:14:42;;;;;;;14.82;13.02;;;15.60;80.60;;;;;;5089247;28;20032;-72
2022/07/11 03:17:08;;;;;;;15.57;13.05;;;15.70;80.70;;;;;;5069090;28;20040;-72
2022/07/11 03:19:34;;;;;;;13.27;11.88;;;15.70;80.60;;;;;;5086201;28;20042;-72
2022/07/11 03:21:59;;;;;;;16.00;12.48;;;15.60;80.60;;;;;;5079100;28;20527;-72
2022/07/11 03:24:25;;;;;;;14.07;12.48;;;15.60;80.50;;;;;;5084365;28;20610;-72
2022/07/11 03:26:51;;;;;;;16.38;13.50;;;15.60;80.50;;;;;;5077825;28;20036;-72
2022/07/11 03:29:17;;;;;;;14.75;12.60;;;15.60;80.60;;;;;;5079829;28;20476;-72
2022/07/11 03:31:43;;;;;;;15.27;12.68;;;15.60;80.70;;;;;;5077198;28;20081;-72
2022/07/11 03:34:09;;;;;;;15.18;13.35;;;15.60;80.70;;;;;;5077875;28;20469;-72
2022/07/11 03:36:35;;;;;;;15.18;13.15;;;15.60;80.50;;;;;;5070111;28;20056;-72
2022/07/11 03:39:00;;;;;;;16.05;13.45;;;15.60;80.50;;;;;;5077311;28;20119;-72
2022/07/11 03:41:26;;;;;;;16.80;13.10;;;15.60;80.40;;;;;;5081003;28;20122;-72
2022/07/11 03:43:52;;;;;;;15.23;13.48;;;15.60;80.30;;;;;;5071884;28;20032;-72
2022/07/11 03:46:17;;;;;;;14.55;13.07;;;15.60;80.40;;;;;;5062253;28;20040;-72
2022/07/11 03:48:44;;;;;;;15.77;13.38;;;15.60;80.50;;;;;;5068030;28;20052;-72
2022/07/11 03:51:10;;;;;;;15.48;13.20;;;15.60;80.60;;;;;;5067988;28;20059;-72
2022/07/11 03:53:35;;;;;;;17.15;13.07;;;15.50;80.70;;;;;;5077933;28;20071;-72
2022/07/11 03:56:01;;;;;;;13.80;11.57;;;15.50;80.80;;;;;;5085399;28;20032;-72
2022/07/11 03:58:26;;;;;;;14.20;12.27;;;15.60;80.80;;;;;;5070035;28;20396;-72
2022/07/11 04:00:52;;;;;;;16.75;12.82;;;15.60;80.50;;;;;;5069541;28;20066;-72
2022/07/11 04:03:18;;;;;;;14.65;11.85;;;15.60;80.10;;;;;;5079511;28;20032;-72
2022/07/11 04:05:43;;;;;;;13.18;11.80;;;15.60;80.00;;;;;;5081661;28;20468;-72
2022/07/11 04:08:09;;;;;;;17.08;13.68;;;15.60;80.10;;;;;;5073691;28;20044;-72
2022/07/11 04:10:35;;;;;;;16.83;12.45;;;15.70;80.00;;;;;;5084962;28;20055;-72
2022/07/11 04:13:00;;;;;;;13.75;12.27;;;15.70;80.10;;;;;;5075394;28;20047;-71
2022/07/11 04:15:26;;;;;;;16.48;13.23;;;15.80;79.90;;;;;;5070355;28;20392;-72
2022/07/11 04:17:52;;;;;;;13.80;12.02;;;15.80;79.70;;;;;;5081917;28;20090;-72
2022/07/11 04:20:18;;;;;;;14.75;12.77;;;15.80;79.50;;;;;;5080276;28;20059;-72
2022/07/11 04:22:43;;;;;;;15.07;12.73;;;15.80;79.70;;;;;;5083044;28;20032;-72
2022/07/11 04:25:09;;;;;;;14.35;12.85;;;15.80;79.50;;;;;;5076102;28;20767;-72
2022/07/11 04:27:35;;;;;;;19.67;13.35;;;15.90;79.30;;;;;;5075941;28;20051;-72
2022/07/11 04:30:00;;;;;;;16.35;13.45;;;15.90;79.40;;;;;;5078402;28;20053;-72
2022/07/11 04:32:26;;;;;;;18.42;12.82;;;15.90;79.50;;;;;;5079258;28;20080;-72
2022/07/11 04:34:52;;;;;;;17.33;14.32;;;15.90;79.60;;;;;;5085062;28;20040;-75
2022/07/11 04:37:17;;;;;;;18.63;16.35;;;16.00;79.90;;;;;;5084026;28;20056;-75
2022/07/11 04:39:45;;;;;;;21.30;18.02;;;16.10;80.10;;;;;;5073712;28;20039;-76
2022/07/11 04:42:11;;;;;;;18.83;16.83;;;16.00;79.90;;;;;;5082033;28;20040;-76
2022/07/11 04:44:36;;;;;;;18.65;16.73;;;15.90;80.80;;;;;;5074859;28;20111;-75
2022/07/11 04:47:02;;;;;;;21.15;18.88;;;16.00;80.80;;;;;;5075064;28;20456;-76
2022/07/11 04:49:29;;;;;;;24.73;22.02;;;16.00;80.80;;;;;;5088819;28;20036;-76
2022/07/11 04:51:56;;;;;;;23.73;21.08;;;16.00;81.30;;;;;;5085607;28;20035;-76
2022/07/11 04:54:22;;;;;;;21.48;19.27;;;16.00;81.60;;;;;;5086815;28;20044;-75
2022/07/11 04:56:48;;;;;;;24.63;21.27;;;16.10;81.70;;;;;;5090272;28;20376;-75
2022/07/11 04:59:14;;;;;;;23.88;21.27;;;16.10;81.70;;;;;;5077516;28;20487;-75
2022/07/11 05:01:40;;;;;;;20.88;18.67;;;16.20;81.70;;;;;;5075483;28;20024;-75
2022/07/11 05:04:07;;;;;;;23.80;21.40;;;16.30;81.60;;;;;;5087067;28;20051;-75
2022/07/11 05:06:33;;;;;;;26.40;22.40;;;16.40;81.40;;;;;;5083156;28;20035;-75
2022/07/11 05:08:59;;;;;;;23.20;20.73;;;16.50;81.10;;;;;;5074844;28;20093;-75
2022/07/11 05:11:24;;;;;;;28.05;25.15;;;16.60;81.20;;;;;;5073279;28;20420;-75
2022/07/11 05:13:50;;;;;;;23.30;20.88;;;16.60;80.90;;;;;;5087666;28;20036;-75
2022/07/11 05:16:16;;;;;;;21.63;19.30;;;16.60;81.00;;;;;;5075591;28;20503;-75
2022/07/11 05:18:42;;;;;;;24.88;22.27;;;16.70;81.10;;;;;;5089314;28;20032;-76
2022/07/11 05:21:07;;;;;;;24.52;21.08;;;17.10;81.20;;;;;;5090290;28;20051;-75
2022/07/11 05:23:33;;;;;;;22.00;19.67;;;18.40;79.70;;;;;;5083964;28;20025;-76
2022/07/11 05:25:59;;;;;;;17.23;15.50;;;20.00;72.90;;;;;;5082236;28;20041;-76
2022/07/11 05:28:24;;;;;;;21.08;17.30;;;21.60;67.80;;;;;;5075808;28;20040;-76
2022/07/11 05:30:50;;;;;;;23.70;19.05;;;22.50;62.70;;;;;;5079211;28;20041;-75
2022/07/11 05:33:16;;;;;;;22.23;19.83;;;23.50;60.00;;;;;;5080173;28;20056;-76
2022/07/11 05:35:41;;;;;;;19.73;17.60;;;24.40;58.10;;;;;;5087091;28;20123;-75
2022/07/11 05:38:07;;;;;;;17.52;15.50;;;25.20;55.00;;;;;;5076782;28;20119;-76
2022/07/11 05:40:33;;;;;;;20.48;16.67;;;26.00;52.90;;;;;;5078312;28;20048;-76
2022/07/11 05:43:00;;;;;;;17.42;15.23;;;26.80;49.80;;;;;;5082117;28;20428;-76
2022/07/11 05:45:26;;;;;;;22.80;19.08;;;26.90;49.70;;;;;;5080070;28;20033;-76
2022/07/11 05:47:52;;;;;;;21.10;16.23;;;27.30;48.00;;;;;;5079829;28;20123;-76
2022/07/11 05:50:17;;;;;;;19.35;17.20;;;26.90;49.50;;;;;;5055464;28;20388;-76
2022/07/11 05:52:43;;;;;;;21.80;19.45;;;27.20;48.90;;;;;;5086107;28;20085;-76
2022/07/11 05:55:09;;;;;;;21.20;15.95;;;26.90;48.90;;;;;;5089480;28;20048;-76
2022/07/11 05:57:34;;;;;;;23.10;17.77;;;27.00;48.90;;;;;;5088135;28;20483;-76
2022/07/11 06:00:00;;;;;;;25.02;15.63;;;26.40;49.90;;;;;;5088017;28;20043;-75
2022/07/11 06:02:26;;;;;;;20.75;16.67;;;25.40;53.80;;;;;;5084702;28;20471;-76
2022/07/11 06:04:51;;;;;;;20.23;16.80;;;24.60;55.80;;;;;;5088459;28;20028;-76
2022/07/11 06:10:01;;;;;;;22.27;20.05;;;22.90;62.00;;;;;;5076371;28;20089;-75
2022/07/11 06:12:27;;;;;;;25.38;22.65;;;22.10;63.70;;;;;;5075251;28;20118;-75
2022/07/11 06:14:52;;;;;;;28.15;22.75;;;21.20;67.60;;;;;;5091472;28;20476;-76
2022/07/11 06:17:18;;;;;;;27.80;23.65;;;21.10;68.70;;;;;;5079107;28;20420;-76
2022/07/11 06:19:44;;;;;;;25.83;22.88;;;21.00;69.40;;;;;;5084145;28;20028;-76
2022/07/11 06:22:10;;;;;;;25.60;22.35;;;20.90;70.20;;;;;;5071657;28;20047;-75
2022/07/11 06:24:35;;;;;;;28.27;23.40;;;20.90;69.70;;;;;;5075942;28;20111;-76
2022/07/11 06:27:01;;;;;;;28.05;25.13;;;20.70;69.70;;;;;;5083525;28;20395;-75
2022/07/11 06:29:27;;;;;;;29.10;25.75;;;20.70;70.30;;;;;;5072396;28;20465;-75
2022/07/11 06:31:52;;;;;;;25.38;22.63;;;20.50;71.40;;;;;;5071751;28;20404;-75
2022/07/11 06:34:18;;;;;;;26.38;20.48;;;20.60;72.00;;;;;;5077186;28;20385;-75
2022/07/11 06:36:44;;;;;;;25.17;20.80;;;20.80;69.90;;;;;;5070838;28;20032;-76
2022/07/11 06:39:10;;;;;;;23.27;20.23;;;20.90;69.70;;;;;;5065915;28;20040;-76
2022/07/11 06:41:36;;;;;;;25.15;21.15;;;21.10;69.50;;;;;;5080022;28;20437;-75
2022/07/11 06:44:01;;;;;;;25.58;19.83;;;21.00;68.80;;;;;;5071666;28;20476;-76
2022/07/11 06:46:27;;;;;;;21.27;18.35;;;20.90;69.90;;;;;;5076249;28;20038;-76
2022/07/11 06:48:53;;;;;;;23.75;18.27;;;21.10;69.30;;;;;;5083659;28;20048;-75
2022/07/11 06:51:19;;;;;;;23.38;17.98;;;21.30;68.50;;;;;;5082676;28;20032;-75
2022/07/11 06:53:45;;;;;;;22.65;18.85;;;21.30;68.10;;;;;;5072438;28;20032;-75
2022/07/11 06:56:11;;;;;;;24.20;19.15;;;21.30;68.00;;;;;;5079912;28;20028;-76
2022/07/11 06:58:36;;;;;;;25.02;19.83;;;21.20;68.40;;;;;;5089096;28;20056;-76
2022/07/11 07:01:06;;;;;;;23.83;18.90;;;21.30;68.20;;;;;;5082137;28;20082;-76
2022/07/11 07:03:33;;;;;;;26.17;21.30;;;21.50;67.90;;;;;;5080525;28;20036;-75
2022/07/11 07:06:00;;;;;;;27.20;22.27;;;21.50;68.40;;;;;;5076511;28;20036;-75
2022/07/11 07:08:26;;;;;;;30.30;22.98;;;21.60;68.20;;;;;;5085989;28;20097;-75
2022/07/11 07:10:53;;;;;;;30.38;23.70;;;21.70;66.90;;;;;;5085815;28;20353;-75
2022/07/11 07:13:20;;;;;;;25.90;20.42;;;21.60;68.10;;;;;;5076989;28;20044;-75
2022/07/11 07:15:47;;;;;;;24.38;19.13;;;21.90;66.70;;;;;;5071934;28;20033;-75
2022/07/11 07:18:13;;;;;;;21.60;17.10;;;22.10;66.40;;;;;;5072166;28;20444;-75
2022/07/11 07:20:38;;;;;;;20.98;16.75;;;22.40;66.10;;;;;;5078905;28;20060;-74
2022/07/11 07:23:04;;;;;;;20.90;15.40;;;22.40;64.30;;;;;;5074518;28;20115;-75
2022/07/11 07:25:30;;;;;;;19.25;14.93;;;22.50;64.30;;;;;;5088237;28;20036;-74
2022/07/11 07:27:55;;;;;;;19.83;13.13;;;22.50;64.90;;;;;;5068492;28;20215;-74
2022/07/11 07:30:21;;;;;;;21.40;15.20;;;22.60;64.60;;;;;;5069360;28;20045;-75
2022/07/11 07:32:47;;;;;;;20.90;13.55;;;22.50;64.20;;;;;;5079451;28;20032;-75
2022/07/11 07:35:12;;;;;;;20.70;14.40;;;22.40;65.20;;;;;;5088525;28;20391;-75
2022/07/11 07:37:38;;;;;;;20.00;14.90;;;22.50;63.90;;;;;;5078484;28;20024;-75
2022/07/11 07:40:04;;;;;;;18.30;14.18;;;22.70;64.50;;;;;;5061309;28;20039;-76
2022/07/11 07:42:30;;;;;;;18.00;12.20;;;23.00;63.80;;;;;;5068713;28;20123;-75
2022/07/11 07:44:55;;;;;;;19.08;13.48;;;23.10;63.20;;;;;;5078499;28;20527;-75
2022/07/11 07:47:21;;;;;;;15.82;11.55;;;23.20;62.70;;;;;;5069108;28;20092;-75
2022/07/11 07:49:47;;;;;;;13.88;9.10;;;23.30;62.30;;;;;;5076692;28;20523;-75
2022/07/11 07:52:13;;;;;;;12.82;7.60;;;23.50;61.40;;;;;;5079394;28;20123;-76
2022/07/11 07:54:39;;;;;;;13.90;8.77;;;23.70;60.40;;;;;;5076738;28;20115;-76
2022/07/11 07:57:05;;;;;;;13.85;8.40;;;23.80;60.40;;;;;;5085166;28;20052;-76
2022/07/11 07:59:30;;;;;;;14.60;10.93;;;24.00;59.50;;;;;;5084464;28;20043;-75
2022/07/11 08:01:56;;;;;;;16.55;12.25;;;24.00;58.80;;;;;;5071409;28;20032;-75
2022/07/11 08:04:22;;;;;;;15.88;10.77;;;23.90;60.10;;;;;;5079645;28;20107;-76
2022/07/11 08:06:48;;;;;;;15.00;10.70;;;24.00;60.30;;;;;;5070933;28;20039;-77
2022/07/11 08:09:14;;;;;;;13.07;9.65;;;24.10;59.10;;;;;;5077292;28;20044;-76
2022/07/11 08:11:39;;;;;;;14.98;9.82;;;24.40;58.90;;;;;;5071423;28;20037;-76
2022/07/11 08:14:07;;;;;;;12.35;8.27;;;24.50;58.70;;;;;;5075875;28;20051;-75
2022/07/11 08:16:33;;;;;;;12.70;7.90;;;24.50;57.70;;;;;;5070122;28;20108;-76
2022/07/11 08:19:01;;;;;;;11.18;7.65;;;24.40;57.20;;;;;;5076667;28;20037;-76
2022/07/11 08:21:28;;;;;;;10.43;5.45;;;24.40;57.40;;;;;;5082186;28;20036;-75
2022/07/11 08:23:54;;;;;;;11.23;6.47;;;24.30;56.60;;;;;;5074034;28;20046;-75
2022/07/11 08:26:20;;;;;;;10.63;5.75;;;24.20;55.50;;;;;;5080517;28;20020;-76
2022/07/11 08:28:46;;;;;;;9.60;5.20;;;24.40;55.30;;;;;;5084225;28;20079;-74
2022/07/11 08:31:11;;;;;;;9.68;5.05;;;24.60;56.10;;;;;;5086842;28;21385;-75
2022/07/11 08:33:37;;;;;;;10.45;5.65;;;24.90;55.90;;;;;;5082118;28;20046;-75
2022/07/11 08:36:03;;;;;;;9.65;5.97;;;24.90;54.70;;;;;;5077996;28;20507;-76
2022/07/11 08:38:32;;;;;;;7.53;4.60;;;24.50;55.70;;;;;;5075685;28;20040;-76
2022/07/11 08:40:57;;;;;;;8.57;4.90;;;24.60;55.90;;;;;;5090201;28;20044;-75
2022/07/11 08:43:31;;;;;;;10.43;5.13;;;24.60;55.10;;;;;;5068910;28;20051;-75
2022/07/11 08:45:58;;;;;;;8.13;4.63;;;24.70;56.30;;;;;;5070565;28;20106;-76
2022/07/11 08:48:24;;;;;;;11.20;5.38;;;24.80;55.10;;;;;;5072979;28;20032;-75
2022/07/11 08:50:51;;;;;;;7.72;4.63;;;24.70;54.90;;;;;;5080519;28;20487;-76
2022/07/11 08:53:17;;;;;;;8.07;4.13;;;24.80;56.50;;;;;;5076231;28;20081;-75
2022/07/11 08:55:43;;;;;;;8.15;4.38;;;25.10;54.80;;;;;;5074687;28;20472;-75
2022/07/11 08:58:09;;;;;;;9.05;4.25;;;25.10;54.50;;;;;;5070995;28;20105;-77
2022/07/11 09:00:36;;;;;;;6.68;2.80;;;25.50;54.80;;;;;;5085099;28;20033;-75
2022/07/11 09:03:03;;;;;;;7.03;2.60;;;25.70;51.70;;;;;;5075901;28;20463;-76
2022/07/11 09:05:30;;;;;;;4.63;2.20;;;25.60;50.60;;;;;;5077592;28;20037;-75
2022/07/11 09:07:56;;;;;;;6.13;2.17;;;25.50;52.20;;;;;;5067065;28;20044;-76
2022/07/11 09:10:22;;;;;;;6.72;2.72;;;25.60;50.40;;;;;;5070671;28;20051;-76
2022/07/11 09:13:06;;;;;;;4.93;3.00;;;25.10;51.80;;;;;;5088212;28;20119;-75
2022/07/11 09:15:33;;;;;;;5.97;2.30;;;25.00;52.00;;;;;;5073496;28;20170;-75
2022/07/11 09:17:59;;;;;;;6.75;2.45;;;25.10;52.20;;;;;;5081311;28;20048;-76
2022/07/11 09:20:25;;;;;;;5.47;2.40;;;25.30;52.30;;;;;;5091137;28;20403;-76
2022/07/11 09:25:44;;;;;;;6.32;2.28;;;25.00;53.00;;;;;;5073130;28;20402;-76
2022/07/11 09:28:10;;;;;;;8.75;2.40;;;25.70;52.00;;;;;;5070294;28;20040;-76
2022/07/11 09:30:42;;;;;;;5.70;2.05;;;25.70;50.80;;;;;;5088900;28;20093;-75
2022/07/11 09:33:12;;;;;;;5.25;2.50;;;25.60;51.80;;;;;;5070505;28;20047;-75
2022/07/11 09:35:42;;;;;;;6.30;2.40;;;26.00;51.10;;;;;;5080007;28;20528;-75
2022/07/11 09:38:09;;;;;;;5.63;2.08;;;25.60;50.00;;;;;;5076810;28;20045;-75
2022/07/11 09:40:36;;;;;;;4.57;2.33;;;25.60;50.60;;;;;;5079798;28;20103;-75
2022/07/11 09:43:03;;;;;;;5.28;2.47;;;25.60;51.50;;;;;;5078472;28;20032;-76
2022/07/11 09:45:31;;;;;;;4.55;2.00;;;25.60;50.70;;;;;;5083227;28;20051;-75
2022/07/11 09:47:59;;;;;;;5.53;2.40;;;26.00;50.20;;;;;;5090253;28;20472;-76
2022/07/11 09:50:30;;;;;;;5.93;2.42;;;26.20;49.60;;;;;;5073306;28;20045;-75
2022/07/11 09:53:16;;;;;;;6.68;2.15;;;26.10;48.90;;;;;;5086958;28;20029;-75
2022/07/11 09:55:45;;;;;;;6.97;2.97;;;26.10;49.60;;;;;;5078755;28;20131;-75
2022/07/11 09:58:13;;;;;;;6.90;2.70;;;26.10;49.60;;;;;;5079498;28;20480;-75
2022/07/11 10:00:40;;;;;;;6.75;3.00;;;26.20;49.40;;;;;;5081215;28;20035;-74
2022/07/11 10:03:07;;;;;;;7.05;2.70;;;26.30;51.70;;;;;;5084335;28;20082;-74
2022/07/11 10:05:33;;;;;;;8.13;3.00;;;26.30;48.10;;;;;;5082648;28;20036;-75
2022/07/11 10:08:00;;;;;;;6.35;3.17;;;26.00;49.60;;;;;;5074458;28;20468;-75
2022/07/11 10:10:28;;;;;;;10.00;3.25;;;25.90;51.10;;;;;;5076164;28;20414;-76
2022/07/11 10:12:54;;;;;;;6.07;2.90;;;26.10;50.80;;;;;;5075099;28;20539;-75
2022/07/11 10:15:24;;;;;;;8.57;3.30;;;26.10;50.20;;;;;;5086504;28;20028;-75
2022/07/11 10:18:04;;;;;;;9.65;3.00;;;26.20;49.90;;;;;;5071510;28;20036;-75
2022/07/11 10:21:03;;;;;;;9.40;4.40;;;26.20;50.50;;;;;;5086119;28;20036;-75
2022/07/11 10:24:00;;;;;;;6.68;3.53;;;26.00;50.20;;;;;;5085237;28;20487;-76
2022/07/11 10:26:38;;;;;;;7.43;3.60;;;26.10;51.00;;;;;;5074534;28;20033;-76
2022/07/11 10:29:23;;;;;;;7.10;4.05;;;25.90;50.90;;;;;;5087884;28;20431;-75
2022/07/11 10:32:07;;;;;;;8.27;3.97;;;26.10;50.40;;;;;;5081195;28;20119;-74
2022/07/11 10:34:33;;;;;;;7.68;4.35;;;26.30;50.20;;;;;;5085755;28;20487;-74
2022/07/11 10:37:04;;;;;;;7.80;4.05;;;26.10;50.20;;;;;;5070880;28;20062;-74
2022/07/11 10:39:32;;;;;;;8.02;4.30;;;26.50;50.60;;;;;;5077217;28;20100;-75
2022/07/11 10:41:59;;;;;;;7.05;4.18;;;26.50;50.70;;;;;;5090155;28;20115;-75
2022/07/11 10:44:27;;;;;;;8.88;4.05;;;26.30;49.60;;;;;;5086033;28;20162;-75
2022/07/11 10:46:54;;;;;;;7.75;4.20;;;26.40;49.80;;;;;;5070547;28;20041;-75
2022/07/11 10:49:41;;;;;;;8.40;4.65;;;26.40;49.90;;;;;;5084300;28;20101;-75
2022/07/11 10:52:08;;;;;;;8.13;4.28;;;26.10;49.70;;;;;;5067978;28;20055;-75
2022/07/11 10:54:48;;;;;;;6.72;4.03;;;26.20;50.40;;;;;;5089554;28;20506;-75
2022/07/11 10:57:58;;;;;;;15.95;4.53;;;26.30;51.00;;;;;;5080982;28;20044;-74
2022/07/11 11:00:24;;;;;;;7.57;4.43;;;26.50;50.00;;;;;;5070782;28;20060;-75
2022/07/11 11:03:07;;;;;;;8.73;4.40;;;26.50;49.80;;;;;;5078800;28;20431;-76
2022/07/11 11:05:48;;;;;;;9.85;4.72;;;26.60;50.20;;;;;;5087012;28;20051;-74
2022/07/11 11:08:35;;;;;;;6.68;3.67;;;26.40;50.20;;;;;;5066320;28;20148;-74
2022/07/11 11:11:23;;;;;;;7.97;4.18;;;26.80;49.90;;;;;;5081606;28;20051;-75
2022/07/11 11:14:18;;;;;;;9.07;3.90;;;27.10;48.80;;;;;;5081569;28;20029;-77
2022/07/11 11:16:44;;;;;;;8.90;5.35;;;27.70;47.80;;;;;;5069348;28;20589;-76
2022/07/11 11:19:44;;;;;;;10.82;5.35;;;27.30;47.80;;;;;;5075363;28;20046;-76
2022/07/11 11:22:14;;;;;;;8.20;5.05;;;26.50;49.30;;;;;;5060620;28;20040;-74
2022/07/11 11:24:42;;;;;;;8.57;5.18;;;26.60;49.50;;;;;;5072197;28;20036;-75
2022/07/11 11:27:21;;;;;;;9.52;5.57;;;26.80;49.20;;;;;;5086423;28;20373;-75
2022/07/11 11:29:49;;;;;;;6.85;4.75;;;26.90;49.40;;;;;;5070174;28;20128;-75
2022/07/11 11:32:14;;;;;;;8.57;4.70;;;27.20;49.00;;;;;;5071476;28;20067;-75
2022/07/11 11:34:43;;;;;;;8.45;4.20;;;27.10;47.90;;;;;;5084842;28;20063;-75
2022/07/11 11:37:09;;;;;;;8.10;5.07;;;27.30;48.50;;;;;;5076836;28;20392;-75
2022/07/11 11:39:38;;;;;;;9.57;5.15;;;27.50;47.00;;;;;;5075573;28;20036;-75
2022/07/11 11:42:04;;;;;;;8.38;4.32;;;27.10;47.40;;;;;;5086885;28;20032;-76
2022/07/11 11:44:32;;;;;;;7.40;3.90;;;27.30;48.20;;;;;;5080455;28;20394;-75
2022/07/11 11:46:57;;;;;;;9.35;4.45;;;27.60;48.30;;;;;;5081434;28;20067;-76
2022/07/11 11:49:23;;;;;;;8.07;4.70;;;27.90;46.10;;;;;;5069678;28;20064;-76
2022/07/11 11:51:49;;;;;;;8.48;4.05;;;27.80;44.90;;;;;;5068555;28;20033;-76
2022/07/11 11:54:23;;;;;;;7.70;4.63;;;27.60;46.60;;;;;;5070188;28;20075;-74
2022/07/11 11:56:49;;;;;;;7.70;4.80;;;27.50;46.50;;;;;;5070026;28;20044;-75
2022/07/11 11:59:15;;;;;;;7.85;4.53;;;27.10;47.10;;;;;;5068515;28;20040;-75
2022/07/11 12:01:51;;;;;;;8.43;4.20;;;27.10;47.80;;;;;;5070303;28;20062;-75
2022/07/11 12:04:17;;;;;;;8.82;4.40;;;27.10;47.70;;;;;;5080067;28;20438;-75
2022/07/11 12:06:45;;;;;;;6.25;4.05;;;27.20;47.50;;;;;;5081939;28;20321;-75
2022/07/11 12:09:15;;;;;;;6.25;3.85;;;27.10;48.20;;;;;;5075909;28;20126;-75
2022/07/11 12:11:44;;;;;;;5.60;3.47;;;27.50;47.00;;;;;;5076520;28;20032;-74
2022/07/11 12:14:12;;;;;;;6.60;3.42;;;27.40;47.30;;;;;;5069700;28;20541;-74
2022/07/11 12:16:49;;;;;;;7.57;3.47;;;27.60;45.30;;;;;;5067979;28;20040;-74
2022/07/11 12:19:21;;;;;;;7.00;3.55;;;28.00;46.40;;;;;;5084059;28;20063;-75
2022/07/11 12:21:49;;;;;;;8.68;3.67;;;28.10;46.40;;;;;;5075431;28;20036;-76
2022/07/11 12:24:23;;;;;;;6.60;3.75;;;28.10;45.60;;;;;;5070716;28;20029;-75
2022/07/11 12:26:49;;;;;;;5.50;2.72;;;28.00;45.40;;;;;;5081182;28;20047;-75
2022/07/11 12:29:24;;;;;;;5.05;2.50;;;28.10;45.50;;;;;;5079991;28;20051;-75
2022/07/11 12:31:53;;;;;;;3.97;2.42;;;28.20;43.70;;;;;;5074691;28;20039;-74
2022/07/11 12:34:27;;;;;;;6.35;2.80;;;28.50;45.30;;;;;;5075087;28;20052;-74
2022/07/11 12:37:37;;;;;;;5.68;2.65;;;28.60;44.40;;;;;;5078474;28;20033;-77
2022/07/11 12:40:06;;;;;;;4.60;2.80;;;28.20;42.50;;;;;;5014142;28;20072;-75
2022/07/11 12:42:35;;;;;;;4.18;2.28;;;28.40;42.30;;;;;;5080141;28;20024;-75
2022/07/11 12:45:08;;;;;;;5.03;2.67;;;28.10;43.10;;;;;;5071376;28;20040;-76